Time;durP1;ratioP1;P1;durP2;ratioP2;P2;SDS_P1;SDS_P2;PMS_P1;PMS_P2;Temp;Humidity;BMP_temperature;BMP_pressure;BME280_temperature;BME280_humidity;BME280_pressure;Samples;Min_cycle;Max_cycle;Signal;HPM_P1;HPM_P2
2022/01/13 00:00:22;;;;;;;3.42;0.82;;;26.50;70.40;;;;;;4153725;28;20037;-72
2022/01/13 00:02:45;;;;;;;2.58;1.02;;;26.40;70.40;;;;;;4145693;28;20056;-72
2022/01/13 00:05:07;;;;;;;;;;;26.50;70.50;;;;;;4145402;28;20041;-72
2022/01/13 00:07:30;;;;;;;1.60;0.50;;;26.50;70.60;;;;;;4145463;28;19913;-74
2022/01/13 00:09:55;;;;;;;3.35;0.82;;;26.50;70.70;;;;;;4150086;28;20045;-74
2022/01/13 00:12:20;;;;;;;4.13;0.90;;;26.50;70.80;;;;;;4154065;28;20037;-74
2022/01/13 00:15:06;;;;;;;2.10;0.70;;;26.50;70.80;;;;;;4156734;28;20037;-75
2022/01/13 00:17:31;;;;;;;0.85;0.60;;;26.50;70.80;;;;;;4155545;28;20049;-74
2022/01/13 00:25:36;;;;;;;0.98;0.52;;;26.60;70.70;;;;;;4148392;28;20034;-74
2022/01/13 00:28:06;;;;;;;1.33;0.60;;;26.60;70.60;;;;;;4154890;28;20119;-73
2022/01/13 00:30:32;;;;;;;3.30;1.08;;;26.60;70.40;;;;;;4152897;28;20067;-74
2022/01/13 00:32:54;;;;;;;2.92;0.65;;;26.60;70.10;;;;;;4151159;28;20049;-75
2022/01/13 00:35:17;;;;;;;3.35;0.90;;;26.60;70.40;;;;;;4141636;28;20076;-74
2022/01/13 00:37:40;;;;;;;4.85;0.80;;;26.60;69.90;;;;;;4145008;28;20045;-75
2022/01/13 00:40:07;;;;;;;3.53;0.95;;;26.60;69.90;;;;;;4150340;28;20792;-74
2022/01/13 00:42:48;;;;;;;3.20;0.93;;;26.60;70.00;;;;;;4160189;28;20155;-76
2022/01/13 00:45:14;;;;;;;6.63;1.17;;;26.60;70.00;;;;;;4163135;28;20052;-75
2022/01/13 00:47:37;;;;;;;2.95;0.65;;;26.60;70.00;;;;;;4152900;28;20538;-75
2022/01/13 00:49:59;;;;;;;2.40;1.02;;;26.60;70.20;;;;;;4167105;28;20896;-75
2022/01/13 00:52:21;;;;;;;4.35;0.73;;;26.60;70.50;;;;;;4163917;28;20102;-74
2022/01/13 00:54:44;;;;;;;3.03;0.90;;;26.60;70.80;;;;;;4162592;28;20041;-74
2022/01/13 00:57:06;;;;;;;2.10;1.00;;;26.60;70.90;;;;;;4170603;28;20075;-74
2022/01/13 00:59:32;;;;;;;2.55;1.02;;;26.60;70.60;;;;;;4171531;28;20078;-75
2022/01/13 01:01:55;;;;;;;2.08;0.82;;;26.60;70.90;;;;;;4170745;28;20048;-74
2022/01/13 01:04:21;;;;;;;2.53;0.80;;;26.70;71.20;;;;;;4165535;28;20100;-75
2022/01/13 01:06:44;;;;;;;1.58;0.80;;;26.70;71.30;;;;;;4153962;28;20075;-76
2022/01/13 01:09:21;;;;;;;1.45;0.77;;;26.70;71.10;;;;;;4165868;28;20505;-74
2022/01/13 01:11:46;;;;;;;4.68;0.90;;;26.70;71.10;;;;;;4164870;28;20033;-74
2022/01/13 01:14:14;;;;;;;4.25;0.88;;;26.70;71.00;;;;;;4148724;28;20069;-75
2022/01/13 01:16:36;;;;;;;5.40;0.80;;;26.70;71.00;;;;;;4162723;28;20041;-76
2022/01/13 01:19:05;;;;;;;2.73;0.60;;;26.80;71.00;;;;;;4171090;28;20032;-74
2022/01/13 01:29:23;;;;;;;2.40;0.73;;;26.80;70.80;;;;;;4171360;28;20029;-72
2022/01/13 01:31:51;;;;;;;3.83;0.90;;;26.80;70.70;;;;;;4168346;28;20083;-74
2022/01/13 01:35:11;;;;;;;;;;;;;;;;;;;;;
2022/01/13 01:39:31;;;;;;;2.95;0.90;;;26.80;70.90;;;;;;4163379;28;20529;-40
2022/01/13 01:41:57;;;;;;;1.30;0.60;;;26.90;70.90;;;;;;4170372;28;20060;-38
2022/01/13 01:44:31;;;;;;;1.48;0.40;;;26.90;70.90;;;;;;4170640;28;20056;-42
2022/01/13 01:46:55;;;;;;;1.85;0.52;;;26.80;71.10;;;;;;4165380;28;20503;-39
2022/01/13 01:49:21;;;;;;;3.25;0.90;;;26.80;71.20;;;;;;4172185;28;20045;-40
2022/01/13 01:51:47;;;;;;;3.05;0.77;;;26.90;71.40;;;;;;4171302;28;20165;-41
2022/01/13 01:54:11;;;;;;;4.82;0.73;;;26.90;71.60;;;;;;4169967;28;20133;-41
2022/01/13 01:56:36;;;;;;;5.53;0.73;;;26.90;71.50;;;;;;4165309;28;20135;-41
2022/01/13 01:59:02;;;;;;;1.83;0.70;;;26.90;71.40;;;;;;4147246;28;20125;-37
2022/01/13 02:01:25;;;;;;;2.33;0.75;;;26.90;71.40;;;;;;4164701;28;20743;-40
2022/01/13 02:03:48;;;;;;;5.60;0.83;;;27.00;71.40;;;;;;4165647;28;20048;-43
2022/01/13 02:06:12;;;;;;;2.97;0.93;;;26.90;71.30;;;;;;4165714;28;20903;-37
2022/01/13 02:08:35;;;;;;;4.65;1.30;;;26.90;71.40;;;;;;4167658;28;20128;-37
2022/01/13 02:10:59;;;;;;;2.67;0.85;;;27.00;71.50;;;;;;4171244;28;20055;-37
2022/01/13 02:13:24;;;;;;;;;;;27.00;71.40;;;;;;4173774;28;20036;-37
2022/01/13 02:16:25;;;;;;;7.60;1.20;;;27.00;71.30;;;;;;4184903;28;19982;-40
2022/01/13 02:18:33;;;;;;;3.03;0.90;;;27.00;71.50;;;;;;4189453;28;20119;-38
2022/01/13 02:20:56;;;;;;;1.65;0.68;;;27.00;71.40;;;;;;4185792;28;20045;-38
2022/01/13 02:23:48;;;;;;;4.47;0.90;;;27.00;71.60;;;;;;4189587;28;20037;-40
2022/01/13 02:26:12;;;;;;;8.10;0.85;;;27.00;72.40;;;;;;4180551;28;20037;-38
2022/01/13 02:28:36;;;;;;;3.35;0.68;;;27.10;72.10;;;;;;4188278;28;20051;-40
2022/01/13 02:31:00;;;;;;;1.38;0.85;;;27.00;72.10;;;;;;4187677;28;20494;-42
2022/01/13 02:33:22;;;;;;;;;;;27.10;72.40;;;;;;4191182;28;20090;-40
2022/01/13 02:35:45;;;;;;;1.98;0.77;;;27.10;72.00;;;;;;4187603;28;19912;-38
2022/01/13 02:38:13;;;;;;;3.65;0.95;;;27.10;71.80;;;;;;4186262;28;20044;-39
2022/01/13 02:40:37;;;;;;;1.70;0.70;;;27.10;71.70;;;;;;4191258;28;20051;-41
2022/01/13 02:43:00;;;;;;;3.47;0.80;;;27.10;71.50;;;;;;4190088;28;20044;-40
2022/01/13 02:45:31;;;;;;;1.08;0.80;;;27.10;71.40;;;;;;4187998;28;20036;-42
2022/01/13 02:48:27;;;;;;;2.83;0.98;;;27.10;72.20;;;;;;4184049;28;20039;-41
2022/01/13 02:50:54;;;;;;;2.05;1.10;;;27.10;71.30;;;;;;4184242;28;20037;-42
2022/01/13 02:53:17;;;;;;;3.40;1.00;;;27.10;72.00;;;;;;4172511;28;20117;-42
2022/01/13 02:55:40;;;;;;;3.63;1.30;;;27.10;71.50;;;;;;4186922;28;20642;-42
2022/01/13 02:58:05;;;;;;;0.85;0.73;;;27.10;71.40;;;;;;4186109;28;20028;-38
2022/01/13 03:00:28;;;;;;;2.47;0.70;;;27.10;71.40;;;;;;4186799;28;20056;-37
2022/01/13 03:02:52;;;;;;;2.72;0.85;;;27.10;71.30;;;;;;4187962;28;20049;-38
2022/01/13 03:05:16;;;;;;;;;;;27.10;71.20;;;;;;4188010;28;20185;-38
2022/01/13 03:07:39;;;;;;;1.67;0.68;;;27.10;71.20;;;;;;4164990;28;19948;-38
2022/01/13 03:10:02;;;;;;;1.92;0.90;;;27.10;71.10;;;;;;4184504;28;20047;-40
2022/01/13 03:12:27;;;;;;;1.35;0.70;;;27.10;71.10;;;;;;4187113;28;20265;-38
2022/01/13 03:14:53;;;;;;;0.85;0.60;;;27.10;71.10;;;;;;4188805;28;20377;-38
2022/01/13 03:17:16;;;;;;;2.55;1.02;;;27.10;71.40;;;;;;4182925;28;20036;-38
2022/01/13 03:19:39;;;;;;;2.63;1.05;;;27.10;71.20;;;;;;4181495;28;20733;-38
2022/01/13 03:22:03;;;;;;;2.75;1.35;;;27.20;71.30;;;;;;4180211;28;20041;-39
2022/01/13 03:24:31;;;;;;;7.38;1.00;;;27.10;70.80;;;;;;4183154;28;20098;-39
2022/01/13 03:26:55;;;;;;;3.17;1.20;;;27.20;70.90;;;;;;4180986;28;20049;-40
2022/01/13 03:29:22;;;;;;;3.38;1.40;;;27.20;70.80;;;;;;4176318;28;20114;-38
2022/01/13 03:31:47;;;;;;;7.05;1.60;;;27.10;69.90;;;;;;4183211;28;20499;-39
2022/01/13 03:34:10;;;;;;;6.07;2.15;;;27.10;69.90;;;;;;4178032;28;20041;-39
2022/01/13 03:36:34;;;;;;;5.90;1.92;;;27.10;70.00;;;;;;4177794;28;20157;-38
2022/01/13 03:38:59;;;;;;;4.97;1.48;;;27.10;70.10;;;;;;4166624;28;20064;-39
2022/01/13 03:41:23;;;;;;;4.25;1.70;;;27.00;70.00;;;;;;4154543;28;20420;-37
2022/01/13 03:43:46;;;;;;;6.05;2.00;;;27.00;70.10;;;;;;4158141;28;20052;-37
2022/01/13 03:46:10;;;;;;;5.15;1.70;;;27.00;70.90;;;;;;4158964;28;20148;-40
2022/01/13 03:48:33;;;;;;;3.55;1.45;;;27.00;70.90;;;;;;4165810;28;20059;-37
2022/01/13 03:50:56;;;;;;;2.73;1.40;;;27.00;71.20;;;;;;4158481;28;20064;-37
2022/01/13 03:53:28;;;;;;;5.72;2.20;;;27.00;71.30;;;;;;4165548;28;20112;-36
2022/01/13 03:56:18;;;;;;;6.93;1.88;;;27.00;71.30;;;;;;4157864;28;20037;-36
2022/01/13 03:59:18;;;;;;;4.80;1.60;;;27.00;71.30;;;;;;4165411;28;20120;-38
2022/01/13 04:02:00;;;;;;;3.08;1.48;;;27.00;71.50;;;;;;4167070;28;20106;-40
2022/01/13 04:04:24;;;;;;;3.45;1.40;;;27.00;71.40;;;;;;4163027;28;20052;-38
2022/01/13 04:06:47;;;;;;;4.07;1.67;;;27.00;71.40;;;;;;4159437;28;20047;-38
2022/01/13 04:09:35;;;;;;;3.67;1.50;;;27.00;71.60;;;;;;4150756;28;20041;-37
2022/01/13 04:12:01;;;;;;;3.88;1.70;;;26.90;71.60;;;;;;4164039;28;20522;-38
2022/01/13 04:14:37;;;;;;;4.57;1.40;;;26.90;71.70;;;;;;4159512;28;20056;-38
2022/01/13 04:17:04;;;;;;;2.72;0.80;;;26.90;71.80;;;;;;4167282;28;20068;-42
2022/01/13 04:19:35;;;;;;;3.53;1.00;;;26.90;71.80;;;;;;4164357;28;20548;-40
2022/01/13 04:22:28;;;;;;;2.72;0.85;;;26.90;71.90;;;;;;4161961;28;20033;-39
2022/01/13 04:24:52;;;;;;;2.17;0.93;;;26.90;71.90;;;;;;4164291;28;20044;-40
2022/01/13 04:27:41;;;;;;;3.95;1.15;;;26.90;71.90;;;;;;4163826;28;20107;-38
2022/01/13 04:32:38;;;;;;;2.40;1.20;;;26.90;71.90;;;;;;4164661;28;20044;-36
2022/01/13 04:35:01;;;;;;;3.72;0.85;;;26.90;71.90;;;;;;4151378;28;20091;-38
2022/01/13 04:37:24;;;;;;;2.10;0.83;;;26.90;72.00;;;;;;4163915;28;20034;-38
2022/01/13 04:39:47;;;;;;;1.65;0.80;;;26.90;72.10;;;;;;4171970;28;20649;-40
2022/01/13 04:42:12;;;;;;;1.63;0.70;;;26.90;71.90;;;;;;4163742;28;20052;-41
2022/01/13 04:44:34;;;;;;;2.90;1.00;;;26.90;72.00;;;;;;4166887;28;20389;-37
2022/01/13 04:46:57;;;;;;;1.60;0.80;;;26.90;72.00;;;;;;4172670;28;20036;-42
2022/01/13 04:49:21;;;;;;;1.13;0.67;;;27.00;72.00;;;;;;4174532;28;20101;-40
2022/01/13 04:51:43;;;;;;;1.48;0.73;;;27.00;72.10;;;;;;4171730;28;20277;-37
2022/01/13 04:54:07;;;;;;;1.38;0.60;;;27.00;72.00;;;;;;4165692;28;20117;-37
2022/01/13 04:57:04;;;;;;;0.98;0.63;;;27.00;72.10;;;;;;4166005;28;20048;-38
2022/01/13 04:59:26;;;;;;;1.48;0.70;;;27.00;72.00;;;;;;4175947;28;20028;-39
2022/01/13 05:01:48;;;;;;;1.98;1.08;;;27.10;72.00;;;;;;4184141;28;20037;-58
2022/01/13 05:04:12;;;;;;;1.88;0.93;;;27.10;71.70;;;;;;4171995;28;20045;-46
2022/01/13 05:06:35;;;;;;;3.05;1.10;;;27.10;71.60;;;;;;4152041;28;20030;-39
2022/01/13 05:08:58;;;;;;;;;;;27.10;71.40;;;;;;4162003;28;20069;-39
2022/01/13 05:11:21;;;;;;;2.75;1.15;;;27.10;71.20;;;;;;4159432;28;20015;-37
2022/01/13 05:13:45;;;;;;;2.47;1.10;;;27.10;71.00;;;;;;4157557;28;20033;-39
2022/01/13 05:16:15;;;;;;;2.67;1.10;;;27.20;71.20;;;;;;4158129;28;20110;-37
2022/01/13 05:21:08;;;;;;;1.55;0.90;;;27.20;71.20;;;;;;4156306;28;20135;-39
2022/01/13 05:23:31;;;;;;;2.38;1.10;;;27.20;71.20;;;;;;4147113;28;20874;-39
2022/01/13 05:25:54;;;;;;;3.67;1.10;;;27.20;71.30;;;;;;4162844;28;20128;-38
2022/01/13 05:28:17;;;;;;;3.08;1.00;;;27.20;71.40;;;;;;4162669;28;20668;-37
2022/01/13 05:30:40;;;;;;;3.45;1.00;;;27.30;71.50;;;;;;4162370;28;20041;-38
2022/01/13 05:33:03;;;;;;;;;;;27.30;71.60;;;;;;4163601;28;20841;-39
2022/01/13 05:35:26;;;;;;;3.30;0.90;;;27.30;71.50;;;;;;4161936;28;20332;-40
2022/01/13 05:37:50;;;;;;;1.85;0.60;;;27.30;71.50;;;;;;4160849;28;20439;-39
2022/01/13 05:40:13;;;;;;;;;;;27.30;71.60;;;;;;4180996;28;20155;-41
2022/01/13 05:42:36;;;;;;;1.48;0.77;;;27.30;71.60;;;;;;4178547;28;20386;-38
2022/01/13 05:44:59;;;;;;;3.83;0.82;;;27.30;71.60;;;;;;4187350;28;20098;-39
2022/01/13 05:47:22;;;;;;;;;;;27.30;71.50;;;;;;4179896;28;20186;-45
2022/01/13 05:49:45;;;;;;;1.88;0.90;;;27.30;71.50;;;;;;4163748;28;20758;-46
2022/01/13 05:52:12;;;;;;;1.83;0.80;;;27.30;71.60;;;;;;4178046;28;20041;-48
2022/01/13 05:54:35;;;;;;;3.75;1.10;;;27.30;71.50;;;;;;4183713;28;20214;-39
2022/01/13 05:56:58;;;;;;;3.42;1.48;;;27.40;72.00;;;;;;4183258;28;20131;-43
2022/01/13 05:59:21;;;;;;;2.67;1.33;;;27.40;71.20;;;;;;4186035;28;20812;-41
2022/01/13 06:01:44;;;;;;;4.05;1.63;;;27.50;71.00;;;;;;4181702;28;20043;-46
2022/01/13 06:04:07;;;;;;;3.70;1.33;;;27.60;70.80;;;;;;4170591;28;20044;-44
2022/01/13 06:06:30;;;;;;;3.55;1.42;;;27.60;70.60;;;;;;4188189;28;20537;-42
2022/01/13 06:08:53;;;;;;;5.00;1.23;;;27.60;70.50;;;;;;4167442;28;20090;-47
2022/01/13 06:11:21;;;;;;;2.37;1.23;;;27.60;70.50;;;;;;4188756;28;20044;-44
2022/01/13 06:13:44;;;;;;;2.65;1.27;;;27.60;70.50;;;;;;4189067;28;20441;-45
2022/01/13 06:16:06;;;;;;;4.78;2.00;;;27.60;70.40;;;;;;4188702;28;20051;-43
2022/01/13 06:18:38;;;;;;;2.30;1.30;;;27.60;70.40;;;;;;4188643;28;20220;-49
2022/01/13 06:21:01;;;;;;;2.67;1.27;;;27.60;70.30;;;;;;4176359;28;20103;-42
2022/01/13 06:23:24;;;;;;;3.83;1.33;;;27.60;70.30;;;;;;4187930;28;20044;-45
2022/01/13 06:25:47;;;;;;;4.50;1.30;;;27.60;70.20;;;;;;4171992;28;20084;-41
2022/01/13 06:28:14;;;;;;;4.18;1.38;;;27.70;70.20;;;;;;4178096;28;20037;-45
2022/01/13 06:30:37;;;;;;;3.92;0.90;;;27.80;70.20;;;;;;4182863;28;20067;-40
2022/01/13 06:33:00;;;;;;;3.90;1.10;;;27.80;70.10;;;;;;4177873;28;20044;-44
2022/01/13 06:35:23;;;;;;;2.83;0.80;;;27.90;70.00;;;;;;4175405;28;20037;-44
2022/01/13 06:37:46;;;;;;;1.50;1.17;;;27.90;69.90;;;;;;4177028;28;20133;-46
2022/01/13 06:40:11;;;;;;;2.33;0.85;;;28.00;69.90;;;;;;4174290;28;20558;-45
2022/01/13 06:42:33;;;;;;;3.08;1.00;;;28.00;69.80;;;;;;4177293;28;20047;-40
2022/01/13 06:44:56;;;;;;;6.18;1.30;;;28.10;69.70;;;;;;4177546;28;20119;-45
2022/01/13 06:47:19;;;;;;;4.03;1.38;;;28.10;69.70;;;;;;4179875;28;20041;-46
2022/01/13 06:54:03;;;;;;;3.80;1.13;;;28.20;69.50;;;;;;3296242;23;20150;-73
2022/01/13 06:56:26;;;;;;;3.50;1.10;;;28.20;69.40;;;;;;4148110;28;20037;-72
2022/01/13 06:58:49;;;;;;;;;;;28.20;69.30;;;;;;4147975;28;20041;-76
2022/01/13 07:01:13;;;;;;;1.17;0.88;;;28.30;69.20;;;;;;4148927;28;19920;-73
2022/01/13 07:03:36;;;;;;;2.60;0.95;;;28.40;69.20;;;;;;4142577;28;20054;-70
2022/01/13 07:05:58;;;;;;;1.88;0.63;;;28.30;69.30;;;;;;4147054;28;20044;-79
2022/01/13 07:08:21;;;;;;;1.17;0.50;;;28.30;69.60;;;;;;4144213;28;20072;-75
2022/01/13 07:11:04;;;;;;;;;;;;;;;;;;;;;
2022/01/13 07:13:45;;;;;;;2.80;0.65;;;28.30;69.90;;;;;;4142422;28;20129;-73
2022/01/13 07:16:08;;;;;;;2.30;0.73;;;28.30;70.00;;;;;;4140773;28;20052;-72
2022/01/13 07:18:31;;;;;;;2.35;0.70;;;28.20;70.00;;;;;;4146446;28;20437;-70
2022/01/13 07:20:56;;;;;;;1.40;0.65;;;28.30;70.20;;;;;;4136661;28;20130;-71
2022/01/13 07:23:18;;;;;;;1.50;0.55;;;28.30;70.20;;;;;;4145201;28;20050;-72
2022/01/13 07:25:41;;;;;;;2.58;0.60;;;28.20;70.20;;;;;;4144515;28;20041;-70
2022/01/13 07:28:05;;;;;;;4.53;0.70;;;28.20;70.30;;;;;;4147041;28;20042;-71
2022/01/13 07:30:27;;;;;;;3.00;0.88;;;28.20;70.30;;;;;;4134920;28;20081;-70
2022/01/13 07:32:50;;;;;;;1.70;0.47;;;28.20;70.30;;;;;;4143309;28;20042;-71
2022/01/13 07:35:13;;;;;;;2.10;0.70;;;28.20;70.30;;;;;;4154010;28;20469;-74
2022/01/13 07:37:35;;;;;;;2.88;0.60;;;28.20;70.30;;;;;;4138117;28;20111;-71
2022/01/13 07:39:58;;;;;;;3.33;0.82;;;28.20;70.30;;;;;;4130568;28;20140;-71
2022/01/13 07:42:23;;;;;;;5.13;0.60;;;28.20;70.40;;;;;;4129242;28;20042;-73
2022/01/13 07:44:45;;;;;;;2.53;0.55;;;28.20;70.40;;;;;;4129072;28;20567;-71
2022/01/13 07:47:08;;;;;;;1.88;0.40;;;28.20;70.30;;;;;;4129651;28;20082;-74
2022/01/13 07:49:30;;;;;;;5.35;0.90;;;28.20;70.40;;;;;;4130838;28;20618;-73
2022/01/13 07:51:56;;;;;;;2.30;0.73;;;28.20;70.40;;;;;;4121590;28;20114;-71
2022/01/13 07:54:19;;;;;;;2.58;0.60;;;28.20;70.40;;;;;;4128957;28;20054;-73
2022/01/13 07:56:41;;;;;;;2.10;0.80;;;28.20;70.40;;;;;;4131819;28;20687;-71
2022/01/13 07:59:07;;;;;;;3.05;0.75;;;28.20;70.40;;;;;;4132972;28;20081;-72
2022/01/13 08:01:29;;;;;;;0.98;0.45;;;28.20;70.40;;;;;;4126933;28;20089;-71
2022/01/13 08:03:55;;;;;;;1.70;0.70;;;28.20;70.40;;;;;;4121017;28;20042;-73
2022/01/13 08:06:20;;;;;;;1.15;0.40;;;28.20;70.40;;;;;;4116048;28;20118;-72
2022/01/13 08:08:42;;;;;;;2.45;0.63;;;28.20;70.40;;;;;;4131294;28;20121;-70
2022/01/13 08:11:06;;;;;;;8.20;0.70;;;28.20;70.40;;;;;;4132611;28;20156;-70
2022/01/13 08:13:29;;;;;;;1.50;0.63;;;28.20;70.40;;;;;;4117186;28;20165;-71
2022/01/13 08:15:54;;;;;;;1.85;0.25;;;28.10;70.30;;;;;;4134534;28;20050;-72
2022/01/13 08:20:58;;;;;;;0.80;0.50;;;28.20;70.40;;;;;;4133679;28;20034;-80
2022/01/13 08:23:20;;;;;;;0.90;0.45;;;28.20;69.90;;;;;;4136548;28;20058;-79
2022/01/13 08:25:43;;;;;;;2.08;0.52;;;28.10;70.20;;;;;;4138930;28;20673;-78
2022/01/13 08:28:08;;;;;;;0.80;0.30;;;28.10;70.20;;;;;;4139450;28;20497;-80
2022/01/13 08:30:31;;;;;;;1.67;0.30;;;28.10;70.20;;;;;;4134495;28;20179;-79
2022/01/13 08:32:54;;;;;;;1.40;0.50;;;28.10;69.90;;;;;;4133351;28;20049;-77
2022/01/13 08:35:16;;;;;;;1.63;0.35;;;28.10;70.20;;;;;;4121749;28;20069;-80
2022/01/13 08:37:43;;;;;;;0.30;0.20;;;28.10;70.20;;;;;;4130578;28;20111;-80
2022/01/13 08:40:08;;;;;;;0.63;0.40;;;28.10;70.30;;;;;;4128412;28;20522;-76
2022/01/13 08:42:30;;;;;;;0.55;0.28;;;28.10;70.90;;;;;;4138551;28;20571;-80
2022/01/13 08:45:06;;;;;;;5.78;0.50;;;28.10;70.20;;;;;;4130966;28;20539;-79
2022/01/13 08:47:29;;;;;;;1.45;0.40;;;28.10;70.30;;;;;;4125705;28;20042;-84
2022/01/13 08:49:57;;;;;;;1.08;0.32;;;28.10;70.30;;;;;;4130994;28;20042;-84
2022/01/13 08:52:20;;;;;;;1.80;0.45;;;28.10;70.30;;;;;;4127823;28;20045;-84
2022/01/13 08:54:46;;;;;;;0.83;0.40;;;28.00;70.20;;;;;;4114250;28;20074;-78
2022/01/13 08:57:09;;;;;;;1.73;0.40;;;28.10;70.30;;;;;;4113612;28;20057;-83
2022/01/13 08:59:31;;;;;;;1.63;0.30;;;28.00;70.20;;;;;;4131265;28;20132;-78
2022/01/13 09:01:55;;;;;;;1.80;0.30;;;28.10;70.30;;;;;;4128733;28;20035;-80
2022/01/13 09:04:17;;;;;;;1.67;0.30;;;28.00;70.30;;;;;;4133071;28;20050;-83
2022/01/13 09:06:39;;;;;;;10.30;0.90;;;28.00;70.30;;;;;;4119109;28;20057;-83
2022/01/13 09:09:02;;;;;;;0.60;0.25;;;28.00;70.30;;;;;;4127009;28;20589;-84
2022/01/13 09:11:25;;;;;;;0.50;0.30;;;28.00;70.30;;;;;;4128051;28;20038;-85
2022/01/13 09:13:55;;;;;;;2.30;0.50;;;28.00;71.10;;;;;;4128914;28;20089;-80
2022/01/13 09:16:18;;;;;;;1.50;0.40;;;28.00;70.50;;;;;;4128681;28;20040;-81
2022/01/13 09:19:14;;;;;;;1.73;0.40;;;28.00;70.50;;;;;;4129230;28;20046;-86
2022/01/13 09:21:30;;;;;;;2.00;0.38;;;28.00;70.40;;;;;;4129175;28;20049;-83
2022/01/13 09:23:53;;;;;;;0.55;0.30;;;28.10;70.40;;;;;;4128170;28;20133;-83
2022/01/13 09:26:16;;;;;;;2.33;0.30;;;28.10;70.30;;;;;;4134152;28;20057;-84
2022/01/13 09:28:39;;;;;;;0.30;0.30;;;28.10;70.20;;;;;;4129512;28;20065;-82
2022/01/13 09:31:02;;;;;;;0.28;0.20;;;28.10;70.10;;;;;;4129562;28;20319;-72
2022/01/13 09:33:25;;;;;;;0.40;0.20;;;28.10;70.00;;;;;;4133402;28;20046;-71
2022/01/13 09:35:48;;;;;;;1.73;0.30;;;28.10;70.00;;;;;;4134037;28;20063;-69
2022/01/13 09:38:10;;;;;;;0.60;0.37;;;28.10;69.90;;;;;;4126063;28;20412;-71
2022/01/13 09:40:33;;;;;;;0.60;0.40;;;28.10;69.80;;;;;;4129332;28;20052;-70
2022/01/13 09:42:56;;;;;;;0.20;0.20;;;28.10;69.80;;;;;;4135065;28;20403;-71
2022/01/13 09:45:19;;;;;;;1.25;0.28;;;28.10;69.80;;;;;;4130148;28;20046;-71
2022/01/13 09:47:43;;;;;;;2.15;0.40;;;28.10;69.80;;;;;;4130820;28;20042;-70
2022/01/13 09:50:10;;;;;;;1.55;0.30;;;28.10;69.80;;;;;;4130624;28;20124;-71
2022/01/13 09:52:33;;;;;;;0.88;0.30;;;28.00;69.70;;;;;;4130458;28;20555;-71
2022/01/13 09:54:55;;;;;;;0.65;0.30;;;28.00;69.70;;;;;;4128601;28;20058;-83
2022/01/13 09:57:18;;;;;;;0.57;0.32;;;28.00;69.90;;;;;;4132322;28;20049;-79
2022/01/13 09:59:41;;;;;;;3.13;0.95;;;28.00;69.70;;;;;;4131752;28;20026;-78
2022/01/13 10:02:03;;;;;;;1.60;0.63;;;28.00;68.10;;;;;;4134491;28;20149;-81
2022/01/13 10:04:46;;;;;;;2.15;0.68;;;28.00;68.50;;;;;;4126430;28;20073;-79
2022/01/13 10:07:10;;;;;;;2.33;0.80;;;28.00;68.70;;;;;;4130752;28;20049;-81
2022/01/13 10:09:53;;;;;;;1.92;0.63;;;27.90;69.10;;;;;;4133071;28;20125;-81
2022/01/13 10:12:25;;;;;;;1.77;0.60;;;27.90;69.40;;;;;;4127549;28;20041;-79
2022/01/13 10:17:20;;;;;;;2.45;0.35;;;27.90;70.00;;;;;;4122216;28;20134;-83
2022/01/13 10:20:17;;;;;;;2.08;0.80;;;27.90;70.20;;;;;;4135230;28;20098;-79
2022/01/13 10:22:40;;;;;;;1.92;0.50;;;27.80;70.50;;;;;;4130965;28;20199;-78
2022/01/13 10:25:03;;;;;;;1.08;0.50;;;27.80;71.00;;;;;;4134995;28;20411;-80
2022/01/13 10:27:39;;;;;;;0.77;0.30;;;27.80;71.00;;;;;;4129634;28;20149;-85
2022/01/13 10:30:16;;;;;;;1.33;0.47;;;27.80;71.00;;;;;;4130505;28;20073;-81
2022/01/13 10:32:41;;;;;;;0.88;0.30;;;27.80;71.20;;;;;;4132986;28;20038;-82
2022/01/13 10:35:10;;;;;;;1.33;0.45;;;27.80;71.20;;;;;;4121407;28;20045;-78
2022/01/13 10:37:46;;;;;;;1.13;0.70;;;27.80;71.30;;;;;;4129452;28;20050;-80
2022/01/13 10:40:17;;;;;;;1.08;0.30;;;27.80;71.30;;;;;;4132974;28;20471;-76
2022/01/13 10:45:22;;;;;;;2.95;0.60;;;27.80;72.00;;;;;;4133585;28;20121;-81
2022/01/13 10:47:56;;;;;;;1.20;0.47;;;27.80;71.00;;;;;;4135151;28;20032;-83
2022/01/13 10:50:47;;;;;;;;;;;27.80;70.70;;;;;;4133925;28;20034;-79
2022/01/13 10:53:25;;;;;;;1.75;0.63;;;27.80;70.60;;;;;;4129118;28;19910;-77
2022/01/13 10:55:59;;;;;;;1.63;0.45;;;27.80;70.30;;;;;;4131035;28;20054;-77
2022/01/13 10:58:36;;;;;;;1.80;0.50;;;27.80;70.70;;;;;;4131373;28;20122;-77
2022/01/13 11:01:00;;;;;;;0.93;0.63;;;27.70;71.40;;;;;;4131679;28;20076;-72
2022/01/13 11:03:26;;;;;;;1.55;0.60;;;27.70;72.40;;;;;;4124611;28;20050;-72
2022/01/13 11:05:50;;;;;;;2.28;0.45;;;27.70;71.90;;;;;;4129658;28;20034;-73
2022/01/13 11:08:39;;;;;;;2.15;0.57;;;27.70;72.10;;;;;;4129436;28;20123;-77
2022/01/13 11:11:20;;;;;;;0.57;0.40;;;27.70;72.20;;;;;;4133174;28;20679;-73
2022/01/13 11:14:21;;;;;;;0.73;0.40;;;27.70;72.40;;;;;;4143174;28;20107;-75
2022/01/13 11:16:43;;;;;;;0.85;0.50;;;27.70;72.40;;;;;;4136836;28;20034;-77
2022/01/13 11:19:07;;;;;;;1.37;0.60;;;27.70;72.50;;;;;;4141418;28;20137;-76
2022/01/13 11:21:39;;;;;;;1.48;0.60;;;27.60;72.40;;;;;;4143672;28;20504;-75
2022/01/13 11:24:18;;;;;;;0.80;0.35;;;27.60;72.40;;;;;;4130537;28;20137;-73
2022/01/13 11:26:41;;;;;;;0.63;0.30;;;27.60;72.40;;;;;;4132723;28;20038;-74
2022/01/13 11:29:04;;;;;;;;;;;27.60;72.40;;;;;;4131685;28;20034;-75
2022/01/13 11:31:35;;;;;;;1.63;0.43;;;27.60;72.40;;;;;;4132943;28;19918;-72
2022/01/13 11:33:58;;;;;;;3.10;0.73;;;27.60;72.40;;;;;;4131336;28;20037;-73
2022/01/13 11:36:22;;;;;;;1.23;0.30;;;27.60;72.50;;;;;;4137614;28;20069;-73
2022/01/13 11:39:07;;;;;;;1.75;0.40;;;27.60;72.50;;;;;;4139501;28;20033;-74
2022/01/13 11:41:29;;;;;;;0.68;0.30;;;27.60;72.50;;;;;;4150026;28;20674;-73
2022/01/13 11:43:52;;;;;;;2.05;0.68;;;27.60;72.40;;;;;;4135336;28;20050;-75
2022/01/13 11:50:04;;;;;;;0.30;0.30;;;27.60;72.50;;;;;;4128142;28;20480;-73
2022/01/13 11:52:47;;;;;;;0.70;0.20;;;27.60;72.60;;;;;;4126351;28;20072;-77
2022/01/13 11:55:29;;;;;;;2.28;0.70;;;27.60;72.60;;;;;;4144003;28;20049;-76
2022/01/13 11:57:56;;;;;;;1.33;0.30;;;27.60;72.90;;;;;;4149950;28;20048;-75
2022/01/13 12:00:31;;;;;;;2.05;0.45;;;27.60;72.80;;;;;;4134789;28;20057;-73
2022/01/13 12:02:54;;;;;;;2.58;0.50;;;27.60;72.80;;;;;;4139317;28;20045;-75
2022/01/13 12:05:26;;;;;;;0.47;0.22;;;27.50;72.70;;;;;;4146378;28;20044;-76
2022/01/13 12:07:53;;;;;;;5.22;0.65;;;27.60;72.70;;;;;;4145894;28;20045;-75
2022/01/13 12:10:22;;;;;;;1.88;0.57;;;27.60;72.70;;;;;;4138763;28;20427;-74
2022/01/13 12:12:44;;;;;;;0.40;0.30;;;27.50;72.50;;;;;;4147066;28;20034;-74
2022/01/13 12:15:27;;;;;;;1.63;0.70;;;27.50;72.40;;;;;;4151645;28;20188;-74
2022/01/13 12:17:57;;;;;;;0.87;0.67;;;27.50;72.40;;;;;;4150565;28;20126;-77
2022/01/13 12:20:26;;;;;;;2.17;0.45;;;27.60;72.50;;;;;;4146927;28;20143;-74
2022/01/13 12:25:34;;;;;;;3.53;0.95;;;27.50;72.30;;;;;;4127023;28;20033;-74
2022/01/13 12:28:17;;;;;;;1.73;0.70;;;27.50;72.30;;;;;;4153160;28;20041;-75
2022/01/13 12:30:46;;;;;;;2.17;0.77;;;27.50;72.30;;;;;;4135448;28;20121;-75
2022/01/13 12:33:09;;;;;;;1.65;0.80;;;27.50;72.40;;;;;;4149606;28;20508;-75
2022/01/13 12:35:35;;;;;;;1.75;0.70;;;27.50;72.30;;;;;;4154936;28;20048;-75
2022/01/13 12:38:05;;;;;;;0.50;0.40;;;27.50;72.30;;;;;;4147387;28;20118;-73
2022/01/13 12:40:33;;;;;;;1.50;0.50;;;27.50;72.30;;;;;;4136329;28;20114;-72
2022/01/13 12:42:56;;;;;;;1.58;0.75;;;27.50;72.30;;;;;;4142952;28;20085;-72
2022/01/13 12:45:32;;;;;;;1.33;0.60;;;27.50;72.30;;;;;;4145282;28;20037;-73
2022/01/13 12:48:19;;;;;;;2.33;0.70;;;27.50;72.30;;;;;;4150833;28;20034;-70
2022/01/13 12:50:44;;;;;;;2.17;0.70;;;27.50;72.30;;;;;;4152462;28;20033;-72
2022/01/13 12:53:19;;;;;;;2.10;0.95;;;27.50;72.30;;;;;;4147564;28;20117;-73
2022/01/13 12:55:55;;;;;;;1.80;0.70;;;27.40;72.30;;;;;;4150626;28;20049;-73
2022/01/13 12:58:25;;;;;;;3.53;1.13;;;27.40;72.20;;;;;;4154654;28;20029;-72
2022/01/13 13:00:50;;;;;;;0.40;0.40;;;27.40;72.20;;;;;;4152533;28;20040;-71
2022/01/13 13:03:13;;;;;;;1.40;0.70;;;27.50;72.30;;;;;;4147818;28;20389;-73
2022/01/13 13:05:47;;;;;;;1.02;0.70;;;27.40;72.10;;;;;;4147044;28;20554;-73
2022/01/13 13:08:10;;;;;;;;;;;27.40;72.10;;;;;;4147717;28;20040;-74
2022/01/13 13:10:33;;;;;;;1.27;0.40;;;27.40;72.10;;;;;;4131506;28;19909;-74
2022/01/13 13:13:05;;;;;;;1.33;0.60;;;27.40;72.70;;;;;;4157686;28;20073;-73
2022/01/13 13:17:57;;;;;;;44.40;3.13;;;27.40;72.00;;;;;;4159967;28;20132;-72
2022/01/13 13:20:34;;;;;;;31.25;3.25;;;27.40;72.20;;;;;;4157947;28;20087;-73
2022/01/13 13:22:59;;;;;;;17.50;2.38;;;27.40;72.40;;;;;;4151515;28;20029;-73
2022/01/13 13:25:33;;;;;;;13.82;2.40;;;27.40;72.00;;;;;;4148547;28;20046;-76
2022/01/13 13:27:56;;;;;;;6.82;1.65;;;27.40;72.30;;;;;;4150671;28;20835;-73
2022/01/13 13:30:21;;;;;;;11.60;1.90;;;27.40;72.20;;;;;;4150400;28;20030;-73
2022/01/13 13:33:07;;;;;;;7.28;1.05;;;27.40;72.20;;;;;;4154150;28;20042;-75